Time;durP1;ratioP1;P1;durP2;ratioP2;P2;SDS_P1;SDS_P2;PMS_P1;PMS_P2;Temp;Humidity;BMP_temperature;BMP_pressure;BME280_temperature;BME280_humidity;BME280_pressure;Samples;Min_cycle;Max_cycle;Signal;HPM_P1;HPM_P2
2022/10/25 00:01:19;;;;;;;11.32;2.65;;;15.70;99.90;;;;;;5080391;28;20017;-73
2022/10/25 00:03:45;;;;;;;11.57;2.42;;;15.70;99.90;;;;;;5065098;28;20032;-73
2022/10/25 00:06:12;;;;;;;11.25;2.20;;;15.60;99.90;;;;;;5062198;28;20048;-73
2022/10/25 00:08:38;;;;;;;13.70;2.65;;;15.70;99.90;;;;;;5058991;28;20059;-74
2022/10/25 00:11:06;;;;;;;12.05;2.40;;;15.60;99.90;;;;;;5062346;28;20021;-73
2022/10/25 00:13:32;;;;;;;13.38;3.03;;;15.60;99.90;;;;;;5054411;28;20402;-73
2022/10/25 00:15:58;;;;;;;12.48;2.40;;;15.70;99.90;;;;;;5066273;28;20020;-72
2022/10/25 00:18:23;;;;;;;11.00;2.30;;;15.70;99.90;;;;;;5060877;28;20132;-73
2022/10/25 00:20:50;;;;;;;14.30;2.63;;;15.70;99.90;;;;;;5058403;28;20068;-73
2022/10/25 00:23:16;;;;;;;11.90;2.70;;;15.70;99.90;;;;;;5064704;28;20114;-73
2022/10/25 00:25:43;;;;;;;9.77;2.72;;;15.80;99.90;;;;;;5060922;28;20029;-72
2022/10/25 00:28:12;;;;;;;8.27;2.30;;;15.70;99.90;;;;;;5057896;28;20013;-73
2022/10/25 00:30:37;;;;;;;7.40;2.63;;;15.70;99.90;;;;;;5059218;28;20040;-74
2022/10/25 00:33:03;;;;;;;11.73;2.15;;;15.60;99.90;;;;;;5063199;28;20021;-72
2022/10/25 00:35:28;;;;;;;11.23;2.53;;;15.70;99.90;;;;;;5054139;28;20021;-72
2022/10/25 00:37:54;;;;;;;12.60;2.25;;;15.70;99.90;;;;;;5060524;28;20036;-72
2022/10/25 00:40:20;;;;;;;8.63;2.38;;;15.60;99.90;;;;;;5055123;28;20096;-74
2022/10/25 00:42:46;;;;;;;10.90;2.22;;;15.60;99.90;;;;;;5068542;28;20469;-73
2022/10/25 00:45:21;;;;;;;11.80;2.60;;;15.60;99.90;;;;;;5069161;28;20373;-73
2022/10/25 00:47:53;;;;;;;15.40;2.70;;;15.60;99.90;;;;;;5058077;28;20116;-72
2022/10/25 00:50:21;;;;;;;8.57;2.17;;;15.60;99.90;;;;;;5060282;28;20432;-72
2022/10/25 00:52:51;;;;;;;12.93;2.28;;;15.50;99.90;;;;;;5062516;28;20029;-73
2022/10/25 00:55:20;;;;;;;9.15;2.13;;;15.60;99.90;;;;;;5054965;28;20040;-73
2022/10/25 00:58:02;;;;;;;10.93;2.47;;;15.60;99.90;;;;;;5060278;28;20037;-74
2022/10/25 01:00:28;;;;;;;13.80;3.05;;;15.60;99.90;;;;;;5067096;28;20074;-73
2022/10/25 01:02:54;;;;;;;12.32;2.28;;;15.60;99.90;;;;;;5059617;28;20024;-73
2022/10/25 01:05:21;;;;;;;12.82;2.13;;;15.60;99.90;;;;;;5064320;28;20363;-74
2022/10/25 01:07:47;;;;;;;9.80;2.40;;;15.60;99.90;;;;;;5065270;28;20050;-73
2022/10/25 01:10:13;;;;;;;12.52;2.28;;;15.50;99.90;;;;;;5061543;28;20032;-73
2022/10/25 01:12:38;;;;;;;9.07;2.53;;;15.60;99.90;;;;;;5070252;28;20079;-75
2022/10/25 01:15:05;;;;;;;5.53;1.73;;;15.50;99.90;;;;;;5061775;28;20032;-73
2022/10/25 01:18:01;;;;;;;9.80;2.72;;;15.50;99.90;;;;;;5060532;28;20485;-74
2022/10/25 01:20:27;;;;;;;10.73;2.30;;;15.50;99.90;;;;;;5068792;28;20032;-73
2022/10/25 01:23:19;;;;;;;10.88;2.58;;;15.50;99.90;;;;;;5066857;28;20082;-73
2022/10/25 01:26:03;;;;;;;9.57;2.58;;;15.40;99.90;;;;;;5059436;28;20043;-73
2022/10/25 01:29:06;;;;;;;10.32;2.50;;;15.40;99.90;;;;;;5065109;28;20095;-73
2022/10/25 01:31:38;;;;;;;11.40;2.63;;;15.40;99.90;;;;;;5064691;28;20047;-73
2022/10/25 01:34:25;;;;;;;7.07;1.90;;;15.40;99.90;;;;;;5062353;28;20511;-73
2022/10/25 01:37:21;;;;;;;14.02;2.80;;;15.30;99.90;;;;;;5070832;28;20029;-73
2022/10/25 01:40:05;;;;;;;7.65;2.22;;;15.30;99.90;;;;;;5061368;28;20082;-73
2022/10/25 01:42:51;;;;;;;18.10;2.72;;;15.30;99.90;;;;;;5061351;28;20107;-73
2022/10/25 01:45:59;;;;;;;13.10;2.28;;;15.30;99.90;;;;;;5062831;28;20032;-73
2022/10/25 01:48:40;;;;;;;6.82;2.05;;;15.30;99.90;;;;;;5063199;28;20103;-73
2022/10/25 01:51:12;;;;;;;9.00;2.20;;;15.30;99.90;;;;;;5059519;28;20053;-73
2022/10/25 01:53:48;;;;;;;;;;;15.30;99.90;;;;;;5061839;28;20104;-73
2022/10/25 01:56:22;;;;;;;5.68;2.22;;;15.30;99.90;;;;;;5066394;28;19911;-73
2022/10/25 01:58:59;;;;;;;10.45;2.20;;;15.20;99.90;;;;;;5062521;28;20043;-73
2022/10/25 02:02:02;;;;;;;12.30;2.67;;;15.20;99.90;;;;;;5062325;28;20021;-74
2022/10/25 02:04:30;;;;;;;9.35;2.50;;;15.10;99.90;;;;;;5063850;28;20033;-72
2022/10/25 02:07:24;;;;;;;17.33;2.75;;;15.20;99.90;;;;;;5064947;28;20032;-73
2022/10/25 02:09:53;;;;;;;10.57;2.65;;;15.10;99.90;;;;;;5063889;28;20025;-73
2022/10/25 02:12:31;;;;;;;14.88;2.75;;;15.10;99.90;;;;;;5071260;28;20021;-73
2022/10/25 02:15:10;;;;;;;16.27;2.83;;;15.00;99.90;;;;;;5060110;28;20033;-73
2022/10/25 02:17:42;;;;;;;8.00;2.17;;;15.10;99.90;;;;;;5058513;28;20501;-73
2022/10/25 02:20:09;;;;;;;;;;;15.00;99.90;;;;;;5065277;28;20032;-73
2022/10/25 02:22:38;;;;;;;10.77;2.42;;;15.00;99.90;;;;;;5066791;28;19912;-73
2022/10/25 02:25:07;;;;;;;8.93;2.83;;;15.00;99.90;;;;;;5055734;28;20017;-73
2022/10/25 02:27:34;;;;;;;16.75;2.13;;;15.10;99.90;;;;;;5059160;28;20021;-73
2022/10/25 02:30:00;;;;;;;10.43;2.33;;;15.10;99.90;;;;;;5060513;28;20520;-74
2022/10/25 02:32:26;;;;;;;10.00;2.33;;;15.00;99.90;;;;;;5063974;28;20040;-72
2022/10/25 02:34:52;;;;;;;15.50;2.45;;;15.00;99.90;;;;;;5061788;28;20569;-73
2022/10/25 02:37:18;;;;;;;9.70;2.50;;;15.00;99.90;;;;;;5059058;28;20075;-73
2022/10/25 02:39:44;;;;;;;12.02;2.15;;;15.00;99.90;;;;;;5059898;28;20037;-73
2022/10/25 02:42:10;;;;;;;8.00;2.17;;;15.10;99.90;;;;;;5065122;28;20108;-73
2022/10/25 02:44:36;;;;;;;7.18;2.40;;;15.00;99.90;;;;;;5079874;28;20115;-73
2022/10/25 02:47:01;;;;;;;10.98;2.95;;;14.90;99.90;;;;;;5064365;28;20552;-73
2022/10/25 02:49:27;;;;;;;17.50;2.60;;;15.00;99.90;;;;;;5057309;28;20025;-73
2022/10/25 02:51:53;;;;;;;10.38;2.75;;;15.00;99.90;;;;;;5059633;28;20020;-73
2022/10/25 02:54:18;;;;;;;12.32;2.85;;;14.90;99.90;;;;;;5062314;28;20044;-74
2022/10/25 02:56:44;;;;;;;16.13;2.40;;;14.90;99.90;;;;;;5065089;28;20020;-73
2022/10/25 02:59:11;;;;;;;9.85;2.45;;;14.90;99.90;;;;;;5063963;28;20040;-73
2022/10/25 03:01:37;;;;;;;16.27;2.58;;;14.90;99.90;;;;;;5074453;28;20025;-73
2022/10/25 03:04:03;;;;;;;13.27;3.10;;;14.80;99.90;;;;;;5059557;28;20518;-73
2022/10/25 03:06:29;;;;;;;11.07;2.78;;;14.90;99.90;;;;;;5060430;28;20021;-73
2022/10/25 03:08:54;;;;;;;12.55;3.20;;;14.90;99.90;;;;;;5055746;28;20017;-73
2022/10/25 03:11:20;;;;;;;8.88;2.30;;;15.00;99.90;;;;;;5059472;28;20036;-73
2022/10/25 03:13:46;;;;;;;3.83;2.00;;;15.10;99.90;;;;;;5063478;28;20025;-73
2022/10/25 03:16:11;;;;;;;10.32;2.92;;;15.00;99.90;;;;;;5064157;28;20070;-73
2022/10/25 03:18:37;;;;;;;8.57;2.20;;;14.90;99.90;;;;;;5059512;28;20051;-73
2022/10/25 03:21:03;;;;;;;12.25;2.38;;;14.90;99.90;;;;;;5067746;28;20063;-73
2022/10/25 03:23:29;;;;;;;12.00;2.45;;;15.00;99.90;;;;;;5064147;28;20070;-73
2022/10/25 03:25:57;;;;;;;8.02;2.40;;;15.10;99.90;;;;;;5061069;28;20025;-74
2022/10/25 03:28:24;;;;;;;12.38;2.58;;;15.10;99.90;;;;;;5062094;28;20116;-73
2022/10/25 03:30:50;;;;;;;6.35;2.00;;;15.00;99.90;;;;;;5061274;28;20055;-73
2022/10/25 03:33:16;;;;;;;9.93;2.58;;;15.00;99.90;;;;;;5057358;28;20114;-73
2022/10/25 03:35:41;;;;;;;10.02;2.22;;;15.00;99.90;;;;;;5056431;28;20025;-72
2022/10/25 03:38:07;;;;;;;13.02;2.30;;;15.00;99.90;;;;;;5059506;28;20048;-73
2022/10/25 03:40:33;;;;;;;10.88;2.08;;;15.00;99.90;;;;;;5057054;28;20478;-72
2022/10/25 03:42:59;;;;;;;9.65;2.90;;;15.10;99.90;;;;;;5063946;28;20026;-73
2022/10/25 03:45:24;;;;;;;7.65;1.98;;;15.10;99.90;;;;;;5078449;28;20031;-72
2022/10/25 03:47:50;;;;;;;10.68;2.50;;;15.20;99.90;;;;;;5066404;28;20028;-72
2022/10/25 03:50:16;;;;;;;15.60;2.63;;;15.10;99.90;;;;;;5057918;28;20060;-73
2022/10/25 03:52:42;;;;;;;12.05;2.67;;;15.00;99.90;;;;;;5060125;28;20628;-72
2022/10/25 03:55:08;;;;;;;11.80;2.38;;;15.00;99.90;;;;;;5066562;28;20095;-73
2022/10/25 03:57:34;;;;;;;8.57;2.10;;;15.00;99.90;;;;;;5067449;28;20485;-73
2022/10/25 04:00:00;;;;;;;11.90;2.10;;;15.00;99.90;;;;;;5054896;28;20078;-73
2022/10/25 04:02:26;;;;;;;12.10;2.30;;;15.00;99.90;;;;;;5060277;28;20017;-73
2022/10/25 04:04:52;;;;;;;10.48;2.65;;;15.00;99.90;;;;;;5064119;28;20032;-73
2022/10/25 04:07:18;;;;;;;10.77;2.50;;;15.10;99.90;;;;;;5055527;28;20420;-72
2022/10/25 04:09:44;;;;;;;10.48;2.55;;;15.10;99.90;;;;;;5062967;28;20032;-72
2022/10/25 04:12:11;;;;;;;10.23;2.58;;;15.10;99.90;;;;;;5055903;28;20017;-72
2022/10/25 04:14:37;;;;;;;9.35;2.33;;;15.10;99.90;;;;;;5061392;28;20040;-73
2022/10/25 04:17:03;;;;;;;13.52;2.80;;;15.20;99.90;;;;;;5061846;28;20033;-73
2022/10/25 04:19:28;;;;;;;8.02;2.28;;;15.10;99.90;;;;;;5061102;28;20028;-72
2022/10/25 04:21:54;;;;;;;8.63;2.28;;;15.10;99.90;;;;;;5061739;28;20033;-72
2022/10/25 04:24:21;;;;;;;7.03;2.20;;;15.10;99.90;;;;;;5059200;28;20029;-72
2022/10/25 04:26:47;;;;;;;11.25;2.50;;;15.10;99.90;;;;;;5061078;28;20499;-73
2022/10/25 04:29:13;;;;;;;8.27;2.22;;;15.10;99.90;;;;;;5054282;28;20013;-73
2022/10/25 04:31:38;;;;;;;12.32;2.85;;;15.10;99.90;;;;;;5060808;28;20122;-72
2022/10/25 04:34:04;;;;;;;6.13;2.50;;;15.00;99.90;;;;;;5063622;28;20024;-72
2022/10/25 04:36:30;;;;;;;14.60;2.97;;;15.00;99.90;;;;;;5064257;28;20028;-73
2022/10/25 04:38:56;;;;;;;7.63;2.40;;;15.00;99.90;;;;;;5062100;28;20082;-72
2022/10/25 04:41:22;;;;;;;8.48;2.25;;;15.00;99.90;;;;;;5064043;28;20067;-73
2022/10/25 04:43:49;;;;;;;10.07;2.33;;;15.00;99.90;;;;;;5065821;28;20032;-72
2022/10/25 04:46:15;;;;;;;9.35;2.90;;;15.00;99.90;;;;;;5068232;28;20028;-72
2022/10/25 04:48:42;;;;;;;16.38;2.47;;;15.00;99.90;;;;;;5064277;28;20048;-72
2022/10/25 04:51:08;;;;;;;10.40;2.75;;;15.00;99.90;;;;;;5060610;28;20032;-72
2022/10/25 04:53:34;;;;;;;15.45;3.22;;;15.00;99.90;;;;;;5063499;28;20058;-72
2022/10/25 04:56:03;;;;;;;10.10;2.85;;;14.90;99.90;;;;;;5068106;28;20479;-72
2022/10/25 04:58:29;;;;;;;9.52;2.45;;;14.90;99.90;;;;;;5066776;28;20477;-72
2022/10/25 05:01:00;;;;;;;9.88;2.50;;;14.90;99.90;;;;;;5066622;28;20035;-73
2022/10/25 05:03:26;;;;;;;15.88;2.83;;;15.00;99.90;;;;;;5065027;28;20102;-72
2022/10/25 05:05:52;;;;;;;8.90;2.58;;;15.00;99.90;;;;;;5069328;28;20404;-72
2022/10/25 05:08:18;;;;;;;10.27;2.80;;;15.00;99.90;;;;;;5061747;28;20080;-73
2022/10/25 05:10:43;;;;;;;7.68;2.47;;;14.90;99.90;;;;;;5059593;28;20359;-73
2022/10/25 05:13:09;;;;;;;12.48;3.38;;;14.90;99.90;;;;;;5072244;28;20404;-73
2022/10/25 05:15:35;;;;;;;16.80;3.60;;;14.90;99.90;;;;;;5065640;28;20036;-73
2022/10/25 05:18:01;;;;;;;8.88;2.72;;;14.90;99.90;;;;;;5069876;28;20036;-73
2022/10/25 05:20:27;;;;;;;11.27;3.40;;;14.80;99.90;;;;;;5059811;28;20075;-73
2022/10/25 05:22:53;;;;;;;10.20;2.90;;;14.90;99.90;;;;;;5060612;28;20070;-72
2022/10/25 05:25:20;;;;;;;12.88;3.55;;;14.80;99.90;;;;;;5059933;28;20104;-72
2022/10/25 05:27:45;;;;;;;9.07;2.60;;;14.90;99.90;;;;;;5059007;28;20143;-72
2022/10/25 05:30:11;;;;;;;11.35;3.22;;;14.80;99.90;;;;;;5066630;28;20558;-74
2022/10/25 05:32:37;;;;;;;10.40;3.05;;;14.80;99.90;;;;;;5061136;28;20493;-72
2022/10/25 05:35:03;;;;;;;10.68;3.50;;;14.80;99.90;;;;;;5068685;28;20123;-73
2022/10/25 05:37:29;;;;;;;14.63;3.42;;;14.80;99.90;;;;;;5063790;28;20020;-72
2022/10/25 05:39:54;;;;;;;12.57;3.35;;;14.70;99.90;;;;;;5065240;28;20031;-72
2022/10/25 05:42:20;;;;;;;16.95;3.90;;;14.80;99.90;;;;;;5061742;28;20021;-72
2022/10/25 05:44:46;;;;;;;10.90;3.08;;;14.70;99.90;;;;;;5069159;28;20036;-72
2022/10/25 05:47:11;;;;;;;12.88;3.60;;;14.70;99.90;;;;;;5062421;28;20036;-72
2022/10/25 05:49:39;;;;;;;14.50;3.97;;;14.70;99.90;;;;;;5064507;28;20074;-73
2022/10/25 05:52:06;;;;;;;16.60;3.50;;;14.70;99.90;;;;;;5062659;28;20412;-73
2022/10/25 05:54:31;;;;;;;13.30;3.83;;;14.70;99.90;;;;;;5065620;28;20033;-73
2022/10/25 05:56:57;;;;;;;12.52;4.32;;;14.70;99.90;;;;;;5065623;28;20372;-74
2022/10/25 05:59:23;;;;;;;12.57;4.70;;;14.60;99.90;;;;;;5079706;28;20037;-74
2022/10/25 06:01:48;;;;;;;9.60;4.40;;;14.70;99.90;;;;;;5067080;28;20113;-74
2022/10/25 06:04:15;;;;;;;13.70;4.28;;;14.70;99.90;;;;;;5065641;28;20515;-74
2022/10/25 06:06:42;;;;;;;10.13;4.60;;;14.80;99.90;;;;;;5061037;28;20028;-73
2022/10/25 06:09:09;;;;;;;16.45;4.50;;;14.70;99.90;;;;;;5065887;28;20560;-74
2022/10/25 06:11:35;;;;;;;9.43;3.85;;;14.70;99.90;;;;;;5060948;28;20529;-73
2022/10/25 06:14:02;;;;;;;16.08;4.38;;;14.70;99.90;;;;;;5067198;28;20063;-73
2022/10/25 06:16:27;;;;;;;11.70;4.43;;;14.70;99.90;;;;;;5064262;28;20037;-72
2022/10/25 06:18:53;;;;;;;13.07;5.00;;;14.70;99.90;;;;;;5058809;28;20492;-74
2022/10/25 06:21:27;;;;;;;14.60;4.80;;;14.70;99.90;;;;;;5059833;28;20025;-73
2022/10/25 06:23:55;;;;;;;15.32;4.70;;;14.60;99.90;;;;;;5060174;28;20063;-73
2022/10/25 06:26:22;;;;;;;12.45;4.47;;;14.60;99.90;;;;;;5059925;28;20071;-74
2022/10/25 06:28:52;;;;;;;14.88;4.80;;;14.60;99.90;;;;;;5065035;28;20040;-74
2022/10/25 06:31:18;;;;;;;16.48;4.80;;;14.60;99.90;;;;;;5063929;28;20017;-73
2022/10/25 06:33:44;;;;;;;17.38;4.65;;;14.60;99.90;;;;;;5059038;28;20055;-73
2022/10/25 06:36:19;;;;;;;12.38;4.75;;;14.60;99.90;;;;;;5070030;28;20020;-73
2022/10/25 06:38:46;;;;;;;14.15;5.18;;;14.60;99.90;;;;;;5056423;28;20036;-73
2022/10/25 06:41:15;;;;;;;11.90;4.85;;;14.60;99.90;;;;;;5056115;28;20048;-73
2022/10/25 06:43:41;;;;;;;11.85;4.65;;;14.70;99.90;;;;;;5063878;28;20082;-74
2022/10/25 06:46:08;;;;;;;19.63;6.13;;;14.70;99.90;;;;;;5069199;28;20468;-73
2022/10/25 06:48:33;;;;;;;12.73;4.55;;;14.70;99.90;;;;;;5055536;28;20481;-73
2022/10/25 06:51:04;;;;;;;16.27;4.93;;;14.70;99.90;;;;;;5057788;28;20054;-73
2022/10/25 06:53:29;;;;;;;16.85;5.05;;;14.70;99.90;;;;;;5064285;28;20028;-73
2022/10/25 06:55:59;;;;;;;13.15;4.70;;;14.70;99.90;;;;;;5057903;28;20021;-73
2022/10/25 06:58:25;;;;;;;19.33;5.65;;;14.80;99.90;;;;;;5033945;28;20497;-73
2022/10/25 07:00:51;;;;;;;14.27;5.32;;;14.70;99.90;;;;;;5047314;28;20100;-73
2022/10/25 07:03:16;;;;;;;16.27;5.55;;;14.70;99.90;;;;;;5071627;28;20025;-74
2022/10/25 07:05:42;;;;;;;17.63;5.32;;;14.80;99.90;;;;;;5053740;28;20805;-73
2022/10/25 07:08:08;;;;;;;11.40;5.20;;;14.70;99.90;;;;;;5052989;28;20021;-73
2022/10/25 07:10:33;;;;;;;19.88;5.20;;;14.80;99.90;;;;;;5052826;28;20036;-73
2022/10/25 07:12:59;;;;;;;19.25;5.63;;;14.80;99.90;;;;;;5053333;28;20055;-73
2022/10/25 07:15:24;;;;;;;16.92;5.55;;;14.80;99.90;;;;;;5051602;28;20536;-73
2022/10/25 07:17:53;;;;;;;15.80;5.55;;;14.70;99.90;;;;;;5050702;28;20037;-73
2022/10/25 07:20:18;;;;;;;14.10;5.55;;;14.80;99.90;;;;;;5052025;28;22818;-73
2022/10/25 07:22:45;;;;;;;12.65;5.30;;;14.80;99.90;;;;;;5055858;28;20454;-73
2022/10/25 07:25:10;;;;;;;11.38;4.53;;;14.80;99.90;;;;;;5052463;28;20377;-73
2022/10/25 07:27:36;;;;;;;12.13;4.93;;;14.80;99.90;;;;;;5053632;28;20013;-73
2022/10/25 07:30:02;;;;;;;13.82;4.90;;;14.80;99.90;;;;;;5050928;28;20657;-72
2022/10/25 07:32:27;;;;;;;9.90;4.38;;;14.80;99.90;;;;;;5050362;28;20028;-72
2022/10/25 07:34:53;;;;;;;14.63;5.10;;;14.80;99.90;;;;;;5049062;28;20028;-74
2022/10/25 07:37:19;;;;;;;12.48;4.68;;;14.80;99.90;;;;;;5050804;28;20075;-73
2022/10/25 07:39:44;;;;;;;17.05;4.63;;;14.80;99.90;;;;;;5053023;28;20036;-74
2022/10/25 07:42:10;;;;;;;9.65;3.97;;;14.80;99.90;;;;;;5055786;28;20019;-74
2022/10/25 07:44:35;;;;;;;14.63;4.70;;;14.80;99.90;;;;;;5052262;28;20527;-74
2022/10/25 07:47:01;;;;;;;15.88;4.32;;;14.80;99.90;;;;;;5050912;28;20506;-73
2022/10/25 07:49:26;;;;;;;16.52;4.95;;;14.80;99.90;;;;;;5052503;28;20437;-74
2022/10/25 07:51:52;;;;;;;13.38;4.35;;;14.80;99.90;;;;;;5050306;28;20029;-73
2022/10/25 07:54:18;;;;;;;11.30;4.43;;;14.90;99.90;;;;;;5046337;28;20028;-73
2022/10/25 07:56:43;;;;;;;13.50;5.00;;;14.90;99.90;;;;;;5033459;28;20029;-74
2022/10/25 07:59:09;;;;;;;15.02;4.85;;;15.00;99.90;;;;;;5044819;28;20041;-74
2022/10/25 08:01:35;;;;;;;13.98;4.82;;;15.00;99.90;;;;;;5046216;28;20481;-74
2022/10/25 08:04:00;;;;;;;18.13;4.57;;;15.10;99.90;;;;;;5046746;28;20461;-74
2022/10/25 08:06:26;;;;;;;15.85;5.35;;;15.10;99.90;;;;;;5045575;28;20024;-74
2022/10/25 08:08:52;;;;;;;9.05;4.43;;;15.10;99.90;;;;;;5046153;28;20028;-75
2022/10/25 08:11:18;;;;;;;11.25;4.57;;;15.10;99.90;;;;;;5045506;28;20039;-74
2022/10/25 08:13:46;;;;;;;10.95;5.05;;;15.10;99.90;;;;;;5046226;28;20025;-74
2022/10/25 08:16:11;;;;;;;15.38;5.00;;;15.20;99.90;;;;;;5042393;28;20320;-73
2022/10/25 08:18:37;;;;;;;11.25;5.00;;;15.20;99.90;;;;;;5047981;28;20206;-75
2022/10/25 08:21:03;;;;;;;9.57;4.55;;;15.30;99.90;;;;;;5045016;28;21712;-74
2022/10/25 08:23:30;;;;;;;10.25;4.47;;;15.30;99.90;;;;;;5046167;28;20081;-74
2022/10/25 08:25:56;;;;;;;9.80;4.82;;;15.20;99.90;;;;;;5045689;28;20189;-74
2022/10/25 08:28:21;;;;;;;15.38;5.43;;;15.30;99.90;;;;;;5047235;28;20103;-74
2022/10/25 08:30:47;;;;;;;12.30;5.20;;;15.30;99.90;;;;;;5044618;28;20112;-74
2022/10/25 08:33:13;;;;;;;14.75;5.22;;;15.40;99.90;;;;;;5046675;28;20032;-74
2022/10/25 08:35:39;;;;;;;11.57;5.25;;;15.40;99.90;;;;;;5043288;28;20485;-73
2022/10/25 08:38:05;;;;;;;10.82;4.78;;;15.40;99.90;;;;;;5048806;28;20044;-74
2022/10/25 08:40:39;;;;;;;14.27;5.28;;;15.50;99.90;;;;;;5047725;28;20351;-74
2022/10/25 08:43:42;;;;;;;14.10;5.28;;;15.50;99.90;;;;;;5047525;28;20033;-73
2022/10/25 08:46:16;;;;;;;12.20;5.38;;;15.50;99.90;;;;;;5044859;28;20483;-74
2022/10/25 08:48:50;;;;;;;11.32;5.10;;;15.60;99.90;;;;;;5045214;28;20432;-73
2022/10/25 08:51:27;;;;;;;9.52;4.90;;;15.70;99.90;;;;;;5044672;28;20035;-74
2022/10/25 08:53:57;;;;;;;14.27;5.00;;;15.80;99.90;;;;;;5045392;28;20029;-73
2022/10/25 08:56:24;;;;;;;14.75;4.38;;;15.90;99.90;;;;;;5043138;28;20037;-74
2022/10/25 08:58:54;;;;;;;10.48;4.10;;;16.00;99.90;;;;;;5045881;28;20386;-76
2022/10/25 09:01:45;;;;;;;8.52;4.38;;;16.00;99.90;;;;;;5049654;28;20052;-73
2022/10/25 09:04:11;;;;;;;12.18;4.18;;;16.00;99.90;;;;;;4967697;28;20044;-73
2022/10/25 09:06:53;;;;;;;12.30;4.57;;;16.20;99.90;;;;;;5042429;28;20021;-72
2022/10/25 09:09:33;;;;;;;7.43;3.67;;;16.00;99.90;;;;;;5043945;28;20085;-73
2022/10/25 09:12:27;;;;;;;8.63;3.92;;;16.10;99.90;;;;;;5046014;28;20025;-74
2022/10/25 09:15:08;;;;;;;12.02;4.13;;;16.10;99.90;;;;;;5043259;28;20573;-74
2022/10/25 09:17:48;;;;;;;12.27;4.60;;;16.00;99.90;;;;;;5040370;28;20043;-76
2022/10/25 09:20:27;;;;;;;11.73;4.22;;;16.10;99.90;;;;;;5048995;28;20111;-73
2022/10/25 09:22:57;;;;;;;14.57;4.47;;;16.20;99.90;;;;;;5048517;28;20037;-73
2022/10/25 09:25:43;;;;;;;8.50;3.47;;;16.20;99.90;;;;;;5049152;28;20101;-77
2022/10/25 09:28:19;;;;;;;11.05;3.97;;;16.30;99.90;;;;;;5048151;28;20028;-74
2022/10/25 09:30:45;;;;;;;10.77;3.60;;;16.30;99.90;;;;;;5048481;28;20016;-74
2022/10/25 09:33:18;;;;;;;12.13;3.85;;;16.20;99.90;;;;;;5048012;28;20032;-73
2022/10/25 09:35:53;;;;;;;8.25;3.50;;;16.20;99.90;;;;;;5050507;28;20056;-73
2022/10/25 09:38:25;;;;;;;9.65;3.70;;;16.30;99.90;;;;;;5057313;28;20028;-74
2022/10/25 09:41:02;;;;;;;13.20;3.47;;;16.30;99.90;;;;;;4988112;28;20028;-74
2022/10/25 09:43:57;;;;;;;10.05;3.47;;;16.40;99.90;;;;;;5049962;28;20595;-75
2022/10/25 09:46:38;;;;;;;11.10;4.13;;;16.40;99.90;;;;;;5039356;28;20111;-74
2022/10/25 09:49:16;;;;;;;10.05;3.65;;;16.30;99.90;;;;;;5047596;28;20540;-75
2022/10/25 09:52:01;;;;;;;10.18;3.15;;;16.40;99.90;;;;;;5050658;28;20028;-74
2022/10/25 09:54:45;;;;;;;14.23;3.40;;;16.30;99.90;;;;;;5048627;28;20124;-75
2022/10/25 09:57:11;;;;;;;11.60;3.30;;;16.30;99.90;;;;;;5050719;28;20020;-74
2022/10/25 09:59:36;;;;;;;7.90;3.03;;;16.30;99.90;;;;;;5048892;28;20052;-75
2022/10/25 10:02:02;;;;;;;6.20;2.92;;;16.20;99.90;;;;;;5046997;28;20043;-75
2022/10/25 10:04:38;;;;;;;7.20;2.28;;;16.30;99.90;;;;;;5047106;28;20039;-75
2022/10/25 10:07:19;;;;;;;7.40;2.60;;;16.30;99.90;;;;;;5046113;28;20055;-74
2022/10/25 10:09:47;;;;;;;11.95;2.92;;;16.50;99.90;;;;;;5049547;28;20032;-75
2022/10/25 10:12:22;;;;;;;9.77;3.10;;;16.50;99.90;;;;;;5050067;28;22488;-74
2022/10/25 10:15:05;;;;;;;8.30;3.00;;;16.50;99.90;;;;;;5049308;28;20125;-73
2022/10/25 10:17:31;;;;;;;7.53;2.72;;;16.50;99.90;;;;;;5046886;28;20520;-74
2022/10/25 10:20:10;;;;;;;8.48;3.33;;;16.60;99.90;;;;;;5047807;28;20040;-73
2022/10/25 10:22:50;;;;;;;8.50;2.25;;;16.70;99.90;;;;;;5046771;28;20043;-73
2022/10/25 10:25:22;;;;;;;7.03;2.38;;;16.70;99.90;;;;;;5042970;28;20149;-74
2022/10/25 10:27:50;;;;;;;12.05;2.92;;;16.70;99.90;;;;;;5031163;28;20033;-73
2022/10/25 10:30:27;;;;;;;8.00;2.45;;;16.70;99.90;;;;;;5049627;28;20385;-74
2022/10/25 10:33:00;;;;;;;7.28;2.10;;;16.70;99.90;;;;;;5051854;28;20025;-76
2022/10/25 10:35:28;;;;;;;8.95;2.25;;;16.70;99.90;;;;;;5052533;28;20029;-75
2022/10/25 10:38:21;;;;;;;11.23;1.90;;;16.70;99.90;;;;;;5051351;28;20028;-76
2022/10/25 10:40:51;;;;;;;12.73;2.50;;;16.70;99.90;;;;;;5050172;28;20420;-75
2022/10/25 10:43:27;;;;;;;10.90;2.75;;;16.70;99.90;;;;;;5048950;28;21088;-74
2022/10/25 10:45:58;;;;;;;9.40;1.95;;;16.70;99.90;;;;;;5052233;28;20028;-72
2022/10/25 10:48:23;;;;;;;11.77;2.17;;;16.70;99.90;;;;;;5052534;28;20025;-75
2022/10/25 10:50:50;;;;;;;6.68;2.45;;;16.90;99.90;;;;;;5051635;28;20472;-77
2022/10/25 10:53:28;;;;;;;7.80;1.85;;;17.00;99.90;;;;;;5049714;28;20032;-75
2022/10/25 10:55:56;;;;;;;8.70;2.40;;;17.20;99.90;;;;;;5048303;28;20367;-73
2022/10/25 10:58:36;;;;;;;7.10;1.92;;;17.20;99.90;;;;;;5048659;28;20120;-74
2022/10/25 11:01:08;;;;;;;9.80;1.95;;;17.30;99.90;;;;;;5048485;28;20632;-74
2022/10/25 11:03:36;;;;;;;12.45;2.75;;;17.40;99.90;;;;;;5047509;28;20071;-74
2022/10/25 11:06:05;;;;;;;8.15;2.45;;;17.50;99.90;;;;;;5051336;28;20070;-74
2022/10/25 11:08:31;;;;;;;9.45;2.28;;;17.50;99.90;;;;;;5049592;28;20031;-74
2022/10/25 11:11:11;;;;;;;9.77;2.10;;;17.40;99.90;;;;;;5047610;28;20520;-76
2022/10/25 11:13:37;;;;;;;6.22;1.95;;;17.60;99.90;;;;;;5049263;28;20025;-75
2022/10/25 11:16:37;;;;;;;6.25;2.38;;;17.60;99.90;;;;;;5050816;28;20040;-77
2022/10/25 11:19:24;;;;;;;11.80;2.38;;;17.60;99.90;;;;;;5048885;28;20501;-73
2022/10/25 11:22:04;;;;;;;11.98;2.25;;;17.50;99.90;;;;;;5049839;28;20032;-73
2022/10/25 11:24:49;;;;;;;7.07;2.33;;;17.50;99.90;;;;;;5050376;28;20043;-73
2022/10/25 11:28:02;;;;;;;3.78;1.70;;;17.50;99.90;;;;;;5050404;28;20036;-73
2022/10/25 11:30:41;;;;;;;7.40;1.48;;;17.50;99.90;;;;;;5045357;28;20040;-74
2022/10/25 11:33:56;;;;;;;10.15;2.17;;;17.50;99.90;;;;;;5048971;28;20090;-74
2022/10/25 11:36:45;;;;;;;6.88;1.85;;;17.50;99.90;;;;;;5028221;28;20045;-75
2022/10/25 11:39:45;;;;;;;6.97;1.77;;;17.60;99.90;;;;;;5029193;28;20037;-72
2022/10/25 11:42:32;;;;;;;9.02;2.20;;;17.60;99.90;;;;;;5052106;28;20044;-72
2022/10/25 11:45:19;;;;;;;8.80;2.22;;;17.60;99.90;;;;;;5046839;28;20036;-71
2022/10/25 11:47:57;;;;;;;8.93;1.90;;;17.80;99.90;;;;;;5048493;28;20488;-72
2022/10/25 11:51:18;;;;;;;7.97;1.70;;;17.90;99.90;;;;;;5049814;28;20017;-72
2022/10/25 11:53:59;;;;;;;5.70;1.60;;;18.00;99.90;;;;;;5031342;28;20124;-72
2022/10/25 11:56:27;;;;;;;5.57;1.50;;;18.10;99.90;;;;;;5048377;28;20017;-74
2022/10/25 11:59:19;;;;;;;4.10;1.58;;;18.10;99.90;;;;;;5046563;28;20119;-72
2022/10/25 12:02:06;;;;;;;5.30;1.60;;;17.90;99.90;;;;;;5049195;28;20116;-74
2022/10/25 12:04:47;;;;;;;7.75;2.00;;;17.90;99.90;;;;;;5046240;28;20032;-75
2022/10/25 12:07:31;;;;;;;8.07;2.17;;;17.90;99.90;;;;;;5045508;28;20033;-72
2022/10/25 12:10:20;;;;;;;7.38;1.45;;;17.80;99.90;;;;;;5049558;28;20167;-72
2022/10/25 12:12:50;;;;;;;6.47;1.73;;;17.80;99.90;;;;;;5046185;28;20029;-72
2022/10/25 12:15:25;;;;;;;5.55;1.30;;;17.80;99.90;;;;;;5046911;28;20033;-72
2022/10/25 12:17:52;;;;;;;6.85;1.80;;;17.70;99.90;;;;;;5046986;28;20044;-72
2022/10/25 12:20:28;;;;;;;9.68;2.20;;;17.90;99.90;;;;;;5047939;28;20032;-72
2022/10/25 12:22:57;;;;;;;5.47;1.40;;;18.00;99.90;;;;;;5048984;28;20032;-72
2022/10/25 12:25:38;;;;;;;9.07;1.63;;;18.00;99.90;;;;;;5045598;28;20017;-72
2022/10/25 12:28:18;;;;;;;5.65;1.48;;;18.20;99.90;;;;;;5046862;28;20124;-73
2022/10/25 12:30:45;;;;;;;8.63;1.58;;;18.30;99.90;;;;;;5047783;28;20497;-72
2022/10/25 12:33:32;;;;;;;6.65;1.52;;;18.20;99.90;;;;;;5045212;28;22203;-72
2022/10/25 12:36:02;;;;;;;6.22;1.05;;;18.30;99.90;;;;;;5046430;28;20021;-71
2022/10/25 12:38:37;;;;;;;8.52;1.60;;;18.40;99.90;;;;;;5047124;28;20485;-73
2022/10/25 12:41:14;;;;;;;6.45;1.05;;;18.50;99.90;;;;;;5047398;28;20028;-72
2022/10/25 12:44:00;;;;;;;7.30;1.83;;;18.60;99.90;;;;;;5047125;28;20109;-72
2022/10/25 12:47:00;;;;;;;7.18;1.40;;;18.60;99.90;;;;;;5049234;28;20013;-72
2022/10/25 12:50:06;;;;;;;7.88;1.48;;;18.50;99.90;;;;;;5037898;28;20047;-72
2022/10/25 12:52:36;;;;;;;4.65;1.30;;;18.40;99.90;;;;;;5050042;28;20520;-72
2022/10/25 12:55:32;;;;;;;6.55;1.20;;;18.40;99.90;;;;;;5048984;28;20089;-74
2022/10/25 12:58:06;;;;;;;3.17;1.10;;;18.40;99.90;;;;;;5046959;28;20526;-74
2022/10/25 13:00:41;;;;;;;7.22;1.30;;;18.40;99.90;;;;;;5050991;28;20110;-74
2022/10/25 13:03:42;;;;;;;11.85;1.55;;;18.40;99.90;;;;;;5053163;28;20028;-74